Time;durP1;ratioP1;P1;durP2;ratioP2;P2;SDS_P1;SDS_P2;PMS_P1;PMS_P2;Temp;Humidity;BMP_temperature;BMP_pressure;BME280_temperature;BME280_humidity;BME280_pressure;Samples;Min_cycle;Max_cycle;Signal;HPM_P1;HPM_P2
2022/06/03 00:02:59;;;;;;;0.68;0.68;;;;;;;20.28;44.56;100353.59;5044819;28;20401;-73
2022/06/03 00:05:28;;;;;;;1.08;0.68;;;;;;;20.26;44.57;100346.72;5001577;28;20918;-73
2022/06/03 00:08:04;;;;;;;1.70;0.70;;;;;;;20.25;44.10;100354.19;5032031;28;20453;-72
2022/06/03 00:11:06;;;;;;;3.55;0.63;;;;;;;20.23;44.64;100339.09;5032067;28;20426;-72
2022/06/03 00:14:08;;;;;;;0.93;0.60;;;;;;;20.14;44.84;100331.59;5018472;28;20427;-72
2022/06/03 00:17:10;;;;;;;0.53;0.53;;;;;;;20.09;44.80;100326.19;5026917;28;20436;-72
2022/06/03 00:19:42;;;;;;;2.00;1.02;;;;;;;20.07;45.10;100322.94;5020093;28;20400;-72
2022/06/03 00:22:17;;;;;;;2.22;0.80;;;;;;;20.10;44.99;100327.81;5031561;28;20518;-72
2022/06/03 00:24:53;;;;;;;2.07;0.70;;;;;;;20.11;45.17;100323.97;5032191;28;20402;-72
2022/06/03 00:27:45;;;;;;;1.83;0.65;;;;;;;20.07;45.04;100322.13;5030428;28;20468;-72
2022/06/03 00:30:29;;;;;;;3.00;0.70;;;;;;;20.03;45.18;100324.69;5025707;28;20420;-73
2022/06/03 00:33:19;;;;;;;2.50;0.82;;;;;;;20.04;45.07;100334.56;5013103;28;20411;-72
2022/06/03 00:36:09;;;;;;;0.43;0.43;;;;;;;20.03;44.92;100334.88;5022909;28;20387;-72
2022/06/03 00:38:44;;;;;;;2.10;0.90;;;;;;;19.99;45.16;100334.69;5029821;28;20445;-73
2022/06/03 00:41:25;;;;;;;4.95;1.08;;;;;;;20.00;45.07;100332.75;5018692;28;20892;-72
2022/06/03 00:44:43;;;;;;;0.70;0.67;;;;;;;20.01;44.74;100339.88;5029298;28;20419;-72
2022/06/03 00:47:34;;;;;;;0.50;0.50;;;;;;;20.00;44.66;100332.75;5009893;28;20442;-72
2022/06/03 00:50:12;;;;;;;2.55;0.80;;;;;;;19.97;44.73;100338.88;5025313;28;20826;-72
2022/06/03 00:53:01;;;;;;;1.95;0.70;;;;;;;19.94;45.03;100336.75;5030988;28;20387;-72
2022/06/03 00:55:47;;;;;;;1.20;0.90;;;;;;;19.89;45.33;100342.38;5031436;28;20474;-72
2022/06/03 00:58:39;;;;;;;1.38;0.70;;;;;;;19.86;45.13;100341.03;5031541;28;20387;-72
2022/06/03 01:01:07;;;;;;;1.70;0.70;;;;;;;19.83;45.35;100349.06;5031225;28;20453;-72
2022/06/03 01:03:42;;;;;;;0.85;0.70;;;;;;;19.78;45.42;100350.03;5030518;28;20403;-72
2022/06/03 01:06:28;;;;;;;1.63;0.70;;;;;;;19.76;45.56;100359.72;5050543;28;20410;-72
2022/06/03 01:09:21;;;;;;;1.35;0.90;;;;;;;19.71;45.87;100354.31;5050895;28;20872;-72
2022/06/03 01:12:08;;;;;;;0.60;0.60;;;;;;;19.69;45.95;100360.13;5051254;28;20401;-72
2022/06/03 01:14:52;;;;;;;0.88;0.88;;;;;;;19.65;45.88;100364.59;5051422;28;20863;-72
2022/06/03 01:17:54;;;;;;;1.70;0.95;;;;;;;19.55;46.31;100353.81;5054571;28;20451;-72
2022/06/03 01:20:43;;;;;;;0.63;0.63;;;;;;;19.53;46.25;100353.28;5040999;28;20876;-72
2022/06/03 01:23:37;;;;;;;1.20;0.85;;;;;;;19.51;46.46;100363.78;5048154;28;20472;-72
2022/06/03 01:26:29;;;;;;;1.40;0.70;;;;;;;19.47;46.46;100362.78;5040139;28;20405;-72
2022/06/03 01:29:28;;;;;;;0.93;0.75;;;;;;;19.43;46.52;100359.03;5055073;28;20496;-72
2022/06/03 01:32:12;;;;;;;1.27;0.67;;;;;;;19.39;46.59;100356.03;5045256;28;20908;-72
2022/06/03 01:35:31;;;;;;;0.80;0.80;;;;;;;19.30;46.46;100363.34;5052727;28;20420;-72
2022/06/03 01:38:18;;;;;;;1.58;0.90;;;;;;;19.30;46.66;100371.59;4953561;29;20422;-72
2022/06/03 01:40:52;;;;;;;2.08;0.95;;;;;;;19.28;46.57;100362.84;4953293;29;20852;-72
2022/06/03 01:43:45;;;;;;;2.22;1.25;;;;;;;19.23;46.87;100365.72;5031286;28;20480;-72
2022/06/03 01:46:35;;;;;;;2.30;0.80;;;;;;;19.21;46.88;100365.19;5052933;28;20500;-72
2022/06/03 01:49:45;;;;;;;1.23;0.80;;;;;;;19.20;46.84;100365.50;5043530;28;20414;-73
2022/06/03 01:52:43;;;;;;;1.83;0.95;;;;;;;19.16;46.72;100366.09;5023301;28;20765;-72
2022/06/03 01:55:45;;;;;;;1.80;1.00;;;;;;;19.12;46.84;100361.50;5031461;28;20462;-72
2022/06/03 01:58:24;;;;;;;1.05;0.70;;;;;;;19.07;46.82;100350.59;5044216;28;20381;-72
2022/06/03 02:01:22;;;;;;;1.10;1.00;;;;;;;19.02;46.69;100346.03;5052107;28;20983;-72
2022/06/03 02:03:47;;;;;;;1.45;1.15;;;;;;;19.03;46.61;100338.63;5036254;28;20401;-72
2022/06/03 02:06:57;;;;;;;1.57;0.87;;;;;;;19.06;46.62;100343.50;5034358;28;20387;-72
2022/06/03 02:09:55;;;;;;;0.80;0.70;;;;;;;19.05;46.44;100339.94;5019337;28;20870;-72
2022/06/03 02:12:58;;;;;;;1.20;0.82;;;;;;;18.95;46.88;100337.38;5032958;28;20902;-72
2022/06/03 02:15:40;;;;;;;2.53;0.90;;;;;;;18.94;46.91;100335.75;5020095;28;20390;-72
2022/06/03 02:18:24;;;;;;;0.80;0.80;;;;;;;18.92;46.88;100335.25;5034158;28;20436;-72
2022/06/03 02:21:07;;;;;;;0.70;0.70;;;;;;;18.87;47.12;100334.53;5034169;28;20393;-72
2022/06/03 02:24:01;;;;;;;2.50;0.82;;;;;;;18.87;47.22;100334.53;5034252;28;20482;-72
2022/06/03 02:26:42;;;;;;;2.90;0.95;;;;;;;18.85;47.14;100337.56;5033954;28;20466;-72
2022/06/03 02:33:03;;;;;;;14.50;1.30;;;;;;;18.79;47.78;100341.53;5033306;28;20398;-72
2022/06/03 02:35:52;;;;;;;1.00;0.90;;;;;;;18.77;47.62;100342.97;5033814;28;20466;-72
2022/06/03 02:38:20;;;;;;;2.20;0.80;;;;;;;18.71;47.61;100346.88;5030032;28;20434;-72
2022/06/03 02:40:54;;;;;;;0.80;0.80;;;;;;;18.70;47.91;100348.84;5032383;28;20399;-72
2022/06/03 02:43:31;;;;;;;3.90;1.00;;;;;;;18.70;47.78;100348.03;5033162;28;20411;-72
2022/06/03 02:46:28;;;;;;;0.95;0.60;;;;;;;18.69;47.96;100344.44;5024769;28;20844;-72
2022/06/03 02:49:29;;;;;;;1.25;0.82;;;;;;;18.67;47.95;100342.00;5020013;28;20740;-72
2022/06/03 02:52:19;;;;;;;0.77;0.70;;;;;;;18.67;47.62;100344.75;5030667;28;20879;-72
2022/06/03 02:55:25;;;;;;;1.63;0.80;;;;;;;18.64;47.63;100344.53;5019579;28;20391;-72
2022/06/03 02:58:05;;;;;;;1.80;0.63;;;;;;;18.56;47.57;100342.50;5044139;28;20568;-72
2022/06/03 03:00:53;;;;;;;1.23;1.10;;;;;;;18.55;47.78;100344.41;5019290;28;20418;-72
2022/06/03 03:03:41;;;;;;;2.42;0.85;;;;;;;18.53;47.76;100341.16;5028004;28;20813;-72
2022/06/03 03:07:09;;;;;;;3.38;0.90;;;;;;;18.54;47.48;100337.28;5052160;28;20421;-72
2022/06/03 03:10:03;;;;;;;1.30;0.70;;;;;;;18.57;47.06;100342.16;4967175;28;20416;-72
2022/06/03 03:12:47;;;;;;;1.85;0.70;;;;;;;18.55;47.19;100338.91;5045452;28;20453;-72
2022/06/03 03:15:49;;;;;;;1.50;0.88;;;;;;;18.52;47.36;100335.97;5053113;28;20432;-72
2022/06/03 03:18:43;;;;;;;0.80;0.70;;;;;;;18.50;47.27;100344.50;5047933;28;20443;-72
2022/06/03 03:21:30;;;;;;;2.88;0.77;;;;;;;18.50;47.35;100344.50;5052917;28;20390;-72
2022/06/03 03:24:14;;;;;;;1.87;0.70;;;;;;;18.49;47.34;100340.09;5052689;28;20992;-72
2022/06/03 03:26:52;;;;;;;0.70;0.70;;;;;;;18.49;47.48;100334.59;5034738;28;20412;-72
2022/06/03 03:29:27;;;;;;;0.63;0.63;;;;;;;18.51;47.29;100323.34;5052701;28;20454;-72
2022/06/03 03:32:16;;;;;;;1.30;0.80;;;;;;;18.53;47.15;100318.38;5036515;28;20381;-72
2022/06/03 03:35:15;;;;;;;0.60;0.60;;;;;;;18.51;47.39;100317.84;5052650;28;20385;-72
2022/06/03 03:38:15;;;;;;;1.10;0.60;;;;;;;18.49;47.19;100318.13;5052170;28;20416;-72
2022/06/03 03:41:25;;;;;;;1.90;1.05;;;;;;;18.48;46.99;100323.91;5051155;28;20900;-72
2022/06/03 03:44:18;;;;;;;1.90;0.73;;;;;;;18.43;47.02;100315.78;5037740;28;20510;-73
2022/06/03 03:46:59;;;;;;;0.95;0.60;;;;;;;18.44;46.95;100320.16;5052365;28;20480;-72
2022/06/03 03:49:59;;;;;;;1.00;0.80;;;;;;;18.42;46.82;100325.13;5052347;28;20465;-72
2022/06/03 03:53:06;;;;;;;0.70;0.70;;;;;;;18.37;46.94;100326.03;5052063;28;20416;-72
2022/06/03 03:55:58;;;;;;;0.90;0.90;;;;;;;18.31;47.26;100329.16;5036552;28;20925;-72
2022/06/03 03:58:38;;;;;;;1.07;0.93;;;;;;;18.28;47.27;100330.56;5042268;28;20534;-72
2022/06/03 04:01:23;;;;;;;0.70;0.70;;;;;;;18.29;47.21;100328.63;5049828;28;20394;-72
2022/06/03 04:03:48;;;;;;;0.95;0.82;;;;;;;18.28;47.13;100322.31;5052026;28;20381;-73
2022/06/03 04:06:35;;;;;;;1.20;0.80;;;;;;;18.24;47.19;100329.53;5044005;28;20414;-72
2022/06/03 04:09:49;;;;;;;0.65;0.63;;;;;;;18.18;47.35;100325.22;5050283;28;20776;-72
2022/06/03 04:12:52;;;;;;;5.27;0.80;;;;;;;18.16;47.38;100330.22;5051874;28;20433;-72
2022/06/03 04:15:36;;;;;;;0.70;0.70;;;;;;;18.15;47.45;100323.91;5037942;28;20484;-72
2022/06/03 04:18:32;;;;;;;1.50;0.77;;;;;;;18.19;47.46;100326.03;5049442;28;20424;-72
2022/06/03 04:21:16;;;;;;;1.17;1.00;;;;;;;18.20;47.51;100317.53;5048297;28;20511;-72
2022/06/03 04:23:52;;;;;;;1.40;0.80;;;;;;;18.21;47.43;100321.88;5048005;28;20464;-72
2022/06/03 04:26:36;;;;;;;0.60;0.60;;;;;;;18.21;47.20;100315.59;5051155;28;20957;-72
2022/06/03 04:29:34;;;;;;;6.00;1.10;;;;;;;18.18;47.29;100316.22;5036422;28;20420;-72
2022/06/03 04:32:12;;;;;;;0.60;0.60;;;;;;;18.17;47.83;100326.38;5030484;28;20444;-72
2022/06/03 04:35:31;;;;;;;1.73;0.65;;;;;;;18.18;48.04;100327.19;5032427;28;20405;-72
2022/06/03 04:38:05;;;;;;;1.23;0.75;;;;;;;18.19;47.57;100309.59;4970155;28;20462;-72
2022/06/03 04:41:05;;;;;;;0.90;0.90;;;;;;;18.21;47.32;100312.88;5049012;28;20406;-72
2022/06/03 04:43:36;;;;;;;1.90;0.68;;;;;;;18.19;47.48;100312.34;5022569;28;20470;-72
2022/06/03 04:46:42;;;;;;;0.80;0.80;;;;;;;18.20;47.13;100311.22;5038300;28;20901;-72
2022/06/03 04:49:49;;;;;;;1.30;0.80;;;;;;;18.21;47.12;100318.34;5048373;28;20440;-72
2022/06/03 04:52:43;;;;;;;2.25;0.85;;;;;;;18.13;47.65;100317.91;5023532;28;20459;-72
2022/06/03 04:55:35;;;;;;;3.40;1.00;;;;;;;18.10;47.47;100306.72;5046303;28;20462;-72
2022/06/03 04:58:18;;;;;;;1.20;0.80;;;;;;;18.11;47.42;100303.66;5048960;28;20402;-73
2022/06/03 05:01:21;;;;;;;1.77;0.90;;;;;;;18.12;47.21;100307.22;5043792;28;20437;-73
2022/06/03 05:04:24;;;;;;;1.60;0.90;;;;;;;18.09;47.35;100313.31;5046818;28;20873;-72
2022/06/03 05:07:25;;;;;;;2.00;0.90;;;;;;;18.06;47.24;100306.50;5047482;28;20417;-72
2022/06/03 05:10:13;;;;;;;2.27;0.87;;;;;;;18.06;47.54;100305.69;5049445;28;20521;-73
2022/06/03 05:13:09;;;;;;;1.33;0.90;;;;;;;18.11;47.33;100308.34;5046270;28;20416;-73
2022/06/03 05:16:09;;;;;;;1.10;0.97;;;;;;;18.10;47.35;100314.94;5042709;28;20470;-73
2022/06/03 05:19:27;;;;;;;2.80;0.70;;;;;;;18.13;47.47;100314.34;5046596;28;20422;-72
2022/06/03 05:22:08;;;;;;;1.38;0.80;;;;;;;18.17;47.50;100323.63;5032622;28;20397;-72
2022/06/03 05:25:11;;;;;;;0.85;0.80;;;;;;;18.15;47.54;100323.09;5050196;28;20423;-72
2022/06/03 05:28:02;;;;;;;4.13;0.97;;;;;;;18.14;47.64;100310.50;5050591;28;20463;-72
2022/06/03 05:30:31;;;;;;;3.60;1.10;;;;;;;18.14;47.60;100316.00;5038629;28;20410;-72
2022/06/03 05:33:11;;;;;;;1.20;1.00;;;;;;;18.16;47.85;100321.97;5045782;28;20402;-72
2022/06/03 05:35:42;;;;;;;1.38;0.90;;;;;;;18.20;47.67;100319.47;5040541;28;20806;-72
2022/06/03 05:38:25;;;;;;;2.58;0.98;;;;;;;18.24;47.69;100323.25;5045331;28;20764;-73
2022/06/03 05:44:40;;;;;;;2.38;0.98;;;;;;;18.25;47.78;100322.91;5010343;28;20394;-72
2022/06/03 05:47:13;;;;;;;1.67;1.17;;;;;;;18.27;47.66;100333.63;5046025;28;20410;-72
2022/06/03 05:49:47;;;;;;;1.60;0.93;;;;;;;18.23;47.67;100327.91;5035554;28;20417;-72
2022/06/03 05:52:51;;;;;;;9.25;1.30;;;;;;;18.12;48.16;100318.19;5044577;28;20517;-72
2022/06/03 05:55:27;;;;;;;2.00;0.90;;;;;;;18.09;48.26;100318.78;4994023;28;20403;-73
2022/06/03 05:58:14;;;;;;;2.65;0.90;;;;;;;18.19;48.07;100321.38;5021088;28;20396;-72
2022/06/03 06:00:50;;;;;;;2.50;1.10;;;;;;;18.23;47.92;100321.59;5048948;28;20401;-73
2022/06/03 06:03:29;;;;;;;0.90;0.90;;;;;;;18.24;47.98;100329.53;5052034;28;20718;-73
2022/06/03 06:06:31;;;;;;;2.80;1.10;;;;;;;18.22;48.15;100328.19;5054043;28;20405;-73
2022/06/03 06:09:33;;;;;;;1.95;1.00;;;;;;;18.26;47.97;100324.56;5049785;28;20777;-72
2022/06/03 06:12:47;;;;;;;1.47;0.90;;;;;;;18.32;47.98;100328.84;5054254;28;20464;-73
2022/06/03 06:15:37;;;;;;;1.70;1.00;;;;;;;18.41;48.12;100323.47;4956640;28;20883;-73
2022/06/03 06:18:14;;;;;;;1.27;1.17;;;;;;;18.45;47.79;100340.97;5035625;28;20454;-73
2022/06/03 06:20:54;;;;;;;3.00;1.00;;;;;;;18.50;47.80;100333.53;5036946;28;20439;-72
2022/06/03 06:23:28;;;;;;;1.90;1.25;;;;;;;18.55;47.88;100333.44;5052378;28;20492;-73
2022/06/03 06:26:52;;;;;;;1.60;1.10;;;;;;;18.56;47.89;100318.59;5051374;28;20508;-73
2022/06/03 06:29:46;;;;;;;1.50;1.40;;;;;;;18.59;47.98;100325.41;5009599;28;20799;-73
2022/06/03 06:32:38;;;;;;;2.90;1.40;;;;;;;18.59;47.99;100319.94;4995366;28;20405;-73
2022/06/03 06:35:31;;;;;;;3.58;1.52;;;;;;;18.58;48.28;100329.25;5043326;28;20420;-72
2022/06/03 06:38:09;;;;;;;2.95;1.20;;;;;;;18.62;48.49;100335.78;5054769;28;20462;-73
2022/06/03 06:40:37;;;;;;;1.50;1.27;;;;;;;18.67;48.63;100328.28;5052355;28;20397;-73
2022/06/03 06:43:27;;;;;;;4.53;1.10;;;;;;;18.75;48.47;100331.44;5047803;28;20399;-73
2022/06/03 06:46:15;;;;;;;1.48;1.38;;;;;;;18.79;48.59;100326.97;5051795;28;20390;-73
2022/06/03 06:49:06;;;;;;;3.65;1.60;;;;;;;18.89;48.49;100337.78;5038491;28;20437;-73
2022/06/03 06:51:40;;;;;;;1.80;1.23;;;;;;;18.97;48.48;100335.13;5047520;28;20929;-72
2022/06/03 06:54:27;;;;;;;2.95;1.23;;;;;;;19.05;48.32;100345.44;5046819;28;20418;-72
2022/06/03 06:57:02;;;;;;;1.20;1.20;;;;;;;19.14;48.18;100343.59;5053340;28;20783;-72
2022/06/03 06:59:49;;;;;;;1.38;1.38;;;;;;;19.18;48.28;100336.38;5052984;28;20737;-73
2022/06/03 07:02:31;;;;;;;1.60;1.42;;;;;;;19.16;48.38;100324.09;5051627;28;20481;-72
2022/06/03 07:05:10;;;;;;;4.35;1.38;;;;;;;19.17;48.45;100321.03;5062359;28;20489;-72
2022/06/03 07:07:43;;;;;;;1.98;1.45;;;;;;;19.15;48.42;100315.03;5053047;28;20459;-73
2022/06/03 07:10:22;;;;;;;1.63;1.20;;;;;;;19.24;48.37;100315.13;5037123;28;20409;-72
2022/06/03 07:12:54;;;;;;;4.10;1.30;;;;;;;19.38;48.85;100307.69;5051219;28;20806;-72
2022/06/03 07:15:34;;;;;;;3.10;1.23;;;;;;;19.50;48.40;100310.75;5048383;28;20397;-72
2022/06/03 07:21:07;;;;;;;5.18;1.55;;;;;;;19.59;47.86;100311.66;5052983;28;20917;-73
2022/06/03 07:23:38;;;;;;;2.20;1.27;;;;;;;19.57;47.99;100313.09;5051180;28;20880;-72
2022/06/03 07:26:14;;;;;;;1.30;1.20;;;;;;;19.53;48.13;100306.56;5051994;28;20405;-72
2022/06/03 07:29:05;;;;;;;2.87;1.30;;;;;;;19.55;48.30;100301.59;5060974;28;20409;-73
2022/06/03 07:31:54;;;;;;;2.10;1.30;;;;;;;19.60;47.87;100291.28;5052617;28;20401;-73
2022/06/03 07:34:37;;;;;;;5.22;1.70;;;;;;;19.65;47.86;100296.69;5034813;28;20416;-73
2022/06/03 07:37:21;;;;;;;1.23;1.13;;;;;;;19.73;47.76;100288.81;5043001;28;20418;-72
2022/06/03 07:39:54;;;;;;;1.73;1.60;;;;;;;19.73;47.89;100273.13;5037708;28;20381;-73
2022/06/03 07:42:26;;;;;;;4.40;1.40;;;;;;;19.77;48.10;100265.06;5052444;28;20386;-73
2022/06/03 07:45:26;;;;;;;2.55;1.50;;;;;;;19.82;47.88;100254.78;5052689;28;20377;-72
2022/06/03 07:47:54;;;;;;;4.60;1.42;;;;;;;19.91;47.32;100260.34;5051269;28;20423;-73
2022/06/03 07:50:21;;;;;;;2.00;1.30;;;;;;;19.99;47.17;100257.66;5052244;28;20401;-72
2022/06/03 07:53:05;;;;;;;4.57;1.75;;;;;;;20.03;47.12;100247.66;5051318;28;20404;-73
2022/06/03 07:55:31;;;;;;;1.80;1.47;;;;;;;20.06;46.87;100247.03;5037076;28;20397;-72
2022/06/03 07:58:04;;;;;;;2.10;1.10;;;;;;;20.07;46.95;100229.41;5052308;28;20408;-72
2022/06/03 08:00:34;;;;;;;5.55;1.40;;;;;;;20.14;46.92;100227.03;5052530;28;20893;-73
2022/06/03 08:03:23;;;;;;;1.20;1.20;;;;;;;20.25;47.16;100221.28;5051375;28;20452;-73
2022/06/03 08:05:58;;;;;;;2.22;1.33;;;;;;;20.36;47.00;100231.72;5044717;28;20417;-72
2022/06/03 08:11:17;;;;;;;1.90;1.20;;;;;;;20.50;47.04;100242.66;5005424;28;20408;-72
2022/06/03 08:13:50;;;;;;;4.60;1.03;;;;;;;20.55;47.01;100242.50;5037883;28;20409;-73
2022/06/03 08:16:35;;;;;;;1.73;1.20;;;;;;;20.58;47.32;100242.69;5051914;28;20765;-73
2022/06/03 08:19:06;;;;;;;1.02;1.02;;;;;;;20.64;47.02;100241.44;5035823;28;20390;-73
2022/06/03 08:21:41;;;;;;;5.50;1.25;;;;;;;20.68;46.86;100228.66;5051692;28;20408;-73
2022/06/03 08:24:13;;;;;;;1.85;0.93;;;;;;;20.74;46.90;100223.00;5051769;28;20877;-72
2022/06/03 08:26:42;;;;;;;2.50;1.15;;;;;;;20.81;46.87;100220.63;5050285;28;20880;-73
2022/06/03 08:29:22;;;;;;;5.03;1.53;;;;;;;20.97;46.86;100225.38;5051853;28;20397;-73
2022/06/03 08:31:48;;;;;;;3.20;1.27;;;;;;;21.15;46.44;100216.03;5051851;28;20405;-72
2022/06/03 08:34:25;;;;;;;2.10;1.17;;;;;;;21.29;46.30;100224.19;5051512;28;20478;-72
2022/06/03 08:36:52;;;;;;;3.15;1.17;;;;;;;21.31;46.34;100226.59;5037000;28;20393;-72
2022/06/03 08:39:22;;;;;;;2.28;1.08;;;;;;;21.37;46.44;100228.88;5050583;28;20472;-72
2022/06/03 08:41:58;;;;;;;4.63;1.40;;;;;;;21.45;46.14;100230.84;5051664;28;20401;-73
2022/06/03 08:44:53;;;;;;;2.15;1.40;;;;;;;21.60;45.93;100224.06;5051495;28;20389;-72
2022/06/03 08:47:52;;;;;;;0.95;0.95;;;;;;;21.69;45.90;100231.22;5050416;28;20414;-72
2022/06/03 08:50:40;;;;;;;4.20;1.08;;;;;;;21.78;45.75;100219.34;5051715;28;20433;-72
2022/06/03 08:53:08;;;;;;;1.38;1.27;;;;;;;21.85;45.60;100214.16;5049466;28;20409;-72
2022/06/03 08:55:39;;;;;;;2.17;1.30;;;;;;;21.92;45.97;100220.03;5040024;28;20472;-72
2022/06/03 08:58:22;;;;;;;1.65;1.17;;;;;;;21.99;45.53;100215.66;5051356;28;20386;-73
2022/06/03 09:00:53;;;;;;;4.18;1.48;;;;;;;22.15;45.63;100210.41;5051491;28;20370;-73
2022/06/03 09:03:22;;;;;;;2.42;1.02;;;;;;;22.33;45.50;100211.19;5051285;28;20476;-73
2022/06/03 09:05:54;;;;;;;1.07;0.93;;;;;;;22.40;45.34;100214.25;5051181;28;20416;-72
2022/06/03 09:08:32;;;;;;;5.13;1.20;;;;;;;22.44;45.12;100202.22;5050230;28;20950;-73
2022/06/03 09:11:02;;;;;;;1.85;1.10;;;;;;;22.46;45.05;100177.06;5051158;28;20393;-73
2022/06/03 09:13:39;;;;;;;1.92;1.10;;;;;;;22.50;45.07;100180.75;5051379;28;20389;-73
2022/06/03 09:16:08;;;;;;;1.27;1.03;;;;;;;22.58;44.94;100191.78;5050956;28;20531;-72
2022/06/03 09:18:41;;;;;;;1.48;1.20;;;;;;;22.71;45.16;100198.25;5051267;28;20408;-73
2022/06/03 09:21:13;;;;;;;2.58;1.02;;;;;;;22.87;45.16;100196.56;5051101;28;20508;-72
2022/06/03 09:23:44;;;;;;;2.53;1.30;;;;;;;22.95;45.01;100187.41;5050256;28;20918;-73
2022/06/03 09:26:20;;;;;;;2.00;1.20;;;;;;;23.01;44.91;100188.84;5051213;28;20408;-72
2022/06/03 09:28:47;;;;;;;1.93;0.83;;;;;;;23.08;44.49;100191.91;5050889;28;20440;-72
2022/06/03 09:31:13;;;;;;;5.50;1.20;;;;;;;23.19;44.33;100192.28;5050922;28;20393;-73
2022/06/03 09:33:41;;;;;;;3.33;0.98;;;;;;;23.29;44.21;100200.19;5051080;28;20444;-73
2022/06/03 09:36:14;;;;;;;1.00;1.00;;;;;;;23.45;44.18;100204.00;5050533;28;20397;-72
2022/06/03 09:38:46;;;;;;;2.35;1.20;;;;;;;23.69;44.06;100203.34;5054834;28;20749;-72
2022/06/03 09:41:12;;;;;;;3.17;0.93;;;;;;;23.84;43.23;100213.00;5053770;28;20451;-72
2022/06/03 09:43:42;;;;;;;1.77;1.10;;;;;;;23.87;43.50;100207.59;5054618;28;20752;-72
2022/06/03 09:46:13;;;;;;;1.35;1.25;;;;;;;23.91;43.65;100204.97;5054906;28;20393;-72
2022/06/03 09:48:41;;;;;;;2.45;0.98;;;;;;;24.06;43.47;100213.44;5054845;28;20409;-72
2022/06/03 09:51:10;;;;;;;2.53;0.95;;;;;;;24.35;43.06;100206.16;5053906;28;20405;-72
2022/06/03 09:53:41;;;;;;;3.90;1.30;;;;;;;24.55;42.84;100203.31;5054640;28;20378;-72
2022/06/03 09:56:23;;;;;;;2.10;1.45;;;;;;;24.74;42.72;100205.53;5054651;28;20397;-72
2022/06/03 09:58:54;;;;;;;3.15;1.42;;;;;;;24.75;42.44;100209.91;5053305;28;20459;-72
2022/06/03 10:01:20;;;;;;;2.77;1.20;;;;;;;24.79;42.35;100208.09;5033322;28;20394;-72
2022/06/03 10:03:45;;;;;;;0.97;0.97;;;;;;;25.04;42.27;100209.72;5041707;28;20385;-72
2022/06/03 10:06:42;;;;;;;3.30;1.38;;;;;;;25.13;41.95;100212.38;5051536;28;20466;-72
2022/06/03 10:14:26;;;;;;;3.60;1.40;;;;;;;25.19;42.34;100211.78;5049872;28;20420;-72
2022/06/03 10:16:51;;;;;;;1.77;1.27;;;;;;;25.34;42.06;100215.00;5052632;28;20799;-73
2022/06/03 10:19:16;;;;;;;3.50;1.03;;;;;;;25.43;42.27;100219.25;5053083;28;20431;-73
2022/06/03 10:21:53;;;;;;;1.20;1.10;;;;;;;25.64;41.94;100231.06;5053824;28;20408;-72
2022/06/03 10:24:22;;;;;;;1.90;1.13;;;;;;;26.09;41.52;100233.53;5054069;28;20721;-72
2022/06/03 10:26:52;;;;;;;1.33;1.33;;;;;;;26.18;40.87;100233.44;5053480;28;20977;-72
2022/06/03 10:29:25;;;;;;;1.95;1.10;;;;;;;26.29;41.31;100235.34;5049943;28;20426;-72
2022/06/03 10:32:03;;;;;;;1.48;1.48;;;;;;;26.02;42.13;100233.34;5045914;28;20413;-73
2022/06/03 10:34:35;;;;;;;1.20;1.10;;;;;;;26.49;40.74;100227.13;5052240;28;20409;-72
2022/06/03 10:37:00;;;;;;;1.33;1.20;;;;;;;26.70;39.96;100234.06;5053156;28;20432;-73
2022/06/03 10:39:28;;;;;;;3.70;1.10;;;;;;;26.92;39.92;100231.81;5053142;28;20397;-71
2022/06/03 10:41:57;;;;;;;1.48;1.20;;;;;;;27.04;39.57;100240.06;5052442;28;20409;-72
2022/06/03 10:44:26;;;;;;;2.63;1.10;;;;;;;27.15;39.26;100243.94;5053044;28;20934;-73
2022/06/03 10:46:53;;;;;;;1.50;1.33;;;;;;;27.30;38.82;100251.44;5052655;28;20405;-73
2022/06/03 10:49:20;;;;;;;2.17;1.42;;;;;;;26.94;39.30;100260.88;5052357;28;20472;-73
2022/06/03 11:02:45;;;;;;;2.88;1.38;;;;;;;25.46;42.36;100223.31;5053647;28;20381;-73
2022/06/03 11:05:23;;;;;;;3.37;1.40;;;;;;;25.35;42.50;100220.22;5051251;28;20405;-72
2022/06/03 11:07:59;;;;;;;2.40;1.60;;;;;;;25.24;42.87;100216.28;5045816;28;20413;-73
2022/06/03 11:10:28;;;;;;;1.35;1.35;;;;;;;25.22;43.13;100205.56;5053205;28;20413;-73
2022/06/03 11:12:58;;;;;;;3.47;1.77;;;;;;;25.22;43.49;100200.03;5052686;28;20876;-73
2022/06/03 11:15:35;;;;;;;4.45;1.45;;;;;;;25.16;42.84;100181.19;5031640;28;20773;-73
2022/06/03 11:18:16;;;;;;;1.90;1.40;;;;;;;25.14;42.72;100177.94;5048125;28;20490;-73
2022/06/03 11:20:42;;;;;;;3.92;1.48;;;;;;;25.16;42.24;100159.00;5052636;28;20480;-73
2022/06/03 11:23:13;;;;;;;3.10;1.50;;;;;;;25.19;42.26;100150.00;5034861;28;20439;-72
2022/06/03 11:26:00;;;;;;;4.32;2.13;;;;;;;25.18;42.50;100149.19;5052886;28;20393;-73
2022/06/03 11:28:34;;;;;;;2.80;1.50;;;;;;;25.23;42.46;100146.16;5048053;28;20419;-72
2022/06/03 11:31:24;;;;;;;3.00;1.30;;;;;;;25.40;42.25;100152.56;5050321;28;20409;-73
2022/06/03 11:34:08;;;;;;;3.15;1.50;;;;;;;25.51;41.60;100137.91;5044512;28;20404;-72
2022/06/03 11:36:50;;;;;;;3.72;1.20;;;;;;;25.58;41.07;100132.56;5051504;28;20466;-72
2022/06/03 11:39:43;;;;;;;3.10;1.20;;;;;;;25.69;40.94;100132.84;5039938;28;20411;-72
2022/06/03 11:42:23;;;;;;;0.90;0.90;;;;;;;25.78;40.81;100145.41;5050381;28;20881;-72
2022/06/03 11:45:00;;;;;;;1.58;1.48;;;;;;;25.87;40.95;100138.91;5028671;28;20408;-73
2022/06/03 11:47:33;;;;;;;3.30;1.13;;;;;;;25.93;41.12;100126.38;5048093;28;20428;-73
2022/06/03 11:49:58;;;;;;;2.40;1.30;;;;;;;25.87;40.58;100134.16;5031749;28;20510;-73
2022/06/03 11:52:24;;;;;;;2.00;1.40;;;;;;;25.91;41.06;100143.41;5044304;28;20464;-73
2022/06/03 11:54:54;;;;;;;2.20;1.33;;;;;;;25.95;40.58;100146.28;5043925;28;20407;-72
2022/06/03 11:57:20;;;;;;;1.67;1.48;;;;;;;25.97;41.19;100138.38;5045785;28;20428;-73
2022/06/03 11:59:54;;;;;;;1.60;1.50;;;;;;;25.98;41.34;100142.78;5050459;28;20389;-72
2022/06/03 12:02:47;;;;;;;1.40;1.30;;;;;;;25.98;42.17;100148.34;5048348;28;20397;-71
2022/06/03 12:05:21;;;;;;;1.63;1.52;;;;;;;26.08;41.58;100142.28;5014698;28;20902;-71
2022/06/03 12:08:07;;;;;;;2.70;1.20;;;;;;;26.49;40.43;100140.97;5048608;28;20420;-72
2022/06/03 12:10:41;;;;;;;1.15;1.15;;;;;;;27.07;39.23;100136.47;5047459;28;20404;-72
2022/06/03 12:13:15;;;;;;;2.30;1.30;;;;;;;27.11;39.67;100146.47;5047101;28;20389;-72
2022/06/03 12:15:52;;;;;;;1.52;1.42;;;;;;;26.93;40.53;100148.06;5051128;28;20488;-72
2022/06/03 12:18:34;;;;;;;2.45;1.40;;;;;;;26.63;40.52;100149.66;5049703;28;20415;-72
2022/06/03 12:21:33;;;;;;;3.10;1.45;;;;;;;26.41;41.16;100158.66;5048420;28;20412;-72
2022/06/03 12:24:26;;;;;;;2.65;2.00;;;;;;;26.43;40.79;100150.75;5050101;28;20413;-72
2022/06/03 12:26:53;;;;;;;2.53;1.45;;;;;;;26.54;40.97;100154.63;5035933;28;20389;-73
2022/06/03 12:29:32;;;;;;;1.58;1.48;;;;;;;26.55;40.85;100165.34;5049745;28;20405;-72
2022/06/03 12:32:11;;;;;;;2.67;1.58;;;;;;;26.47;41.98;100180.25;5050355;28;20394;-72
2022/06/03 12:34:36;;;;;;;2.33;1.60;;;;;;;26.34;41.35;100186.25;5051345;28;20443;-72
2022/06/03 12:37:23;;;;;;;1.50;1.40;;;;;;;26.36;42.08;100197.78;5051449;28;20393;-72
2022/06/03 12:40:00;;;;;;;3.05;1.42;;;;;;;26.45;41.36;100203.97;5051016;28;20861;-72
2022/06/03 12:42:28;;;;;;;1.60;1.50;;;;;;;26.43;41.38;100203.53;5051532;28;20385;-72
2022/06/03 12:45:29;;;;;;;1.67;1.52;;;;;;;26.48;41.50;100204.06;5029390;28;20403;-72
2022/06/03 12:47:55;;;;;;;2.85;1.75;;;;;;;26.53;41.21;100186.34;5047770;28;20415;-72
2022/06/03 12:50:26;;;;;;;3.27;1.30;;;;;;;26.43;41.36;100197.97;5048089;28;20394;-72
2022/06/03 12:52:59;;;;;;;1.35;1.25;;;;;;;26.40;41.53;100193.16;5049207;28;20401;-72
2022/06/03 12:55:28;;;;;;;3.85;1.52;;;;;;;26.35;41.51;100199.75;5045293;28;20413;-72
2022/06/03 12:58:04;;;;;;;3.22;1.48;;;;;;;26.27;42.34;100209.09;5042753;28;20401;-72
2022/06/03 13:00:36;;;;;;;3.33;1.33;;;;;;;26.18;42.29;100212.00;5041970;28;20419;-72
2022/06/03 13:03:16;;;;;;;2.22;1.52;;;;;;;26.13;42.81;100212.25;5038406;28;20398;-72
2022/06/03 13:05:50;;;;;;;3.33;1.52;;;;;;;26.09;43.30;100204.97;5044290;28;20492;-72